メインページ
METAR-TAF:

METAR-TAF

空港 :

デンバー, コロラド州, アメリカ合衆国

デンバー国際空港

緯度: 39-49-58N, 経度: 104-39-27W, 海抜: 1655m

現時点の気象観測

当レポートは42分前の15:53(UTC)に作成
南西の風 6kt
気温 9°C
湿度 57%
気圧 1024 hPa
視程: 16.1km
高度9000ftの雲はほとんどない
高度12000ftの雲は散在している
高度22000ftの曇り

METAR: KDEN 221553Z 22006KT 10SM FEW090 SCT120 OVC220 09/01 A3025 RMK AO2 SLP232 T00940011

時間: 09:35 (16:35 UTC)

予報

当レポートは1時間21分前の15:14(UTC)に作成
予報は22日の 15時(UTC)から 23日の 18時(UTC)まで有効
南/南西の風 9kt
視程: 10km
高度9000ftの雲はほとんどない
高度12000ftの雲は散在している
高度22000ftの千切れ雲あり
22日の 1900時(UTC)から
西の風 9kt
視程: 10km
高度12000ftの雲は散在している
高度22000ftの千切れ雲あり
22日の 2100時(UTC)から
北西の風 11kt
視程: 10km
高度12000ftの雲は散在している
高度22000ftの千切れ雲あり
22日の 21時(UTC)から 22日の 23時(UTC)まで一時的に
北西の風 13kt、最大22ktの突風を伴う
23日の 0200時(UTC)から
南/南西の風 9kt
視程: 10km
高度22000ftの雲は散在している

TAF: KDEN 221514Z 2215/2318 21009KT P6SM FEW090 SCT120 BKN220 FM221900 28009KT P6SM SCT120 BKN220 FM222100 31011KT P6SM SCT120 BKN220 TEMPO 2221/2223 31013G22KT FM230200 21009KT P6SM SCT220

4,000以上の空港の気象観測と天気予報(METAR報とTAF報)

利用可能な観測所は地図上に黄色い丸と赤い丸で示す。

丸の上にカーソルを重ねると観測所名を参照できる。

次にクリックすると気象観測と天気予報を参照できる。

マップの切り替え:黒色「×」印の緑ボタンをクリックして拡大、「-」印の緑ボタンをクリックして縮小、緑色の三角印をクリックして隣りの地図に切り替え


METAR-TAF: